Time;durP1;ratioP1;P1;durP2;ratioP2;P2;SDS_P1;SDS_P2;PMS_P1;PMS_P2;Temp;Humidity;BMP_temperature;BMP_pressure;BME280_temperature;BME280_humidity;BME280_pressure;Samples;Min_cycle;Max_cycle;Signal;HPM_P1;HPM_P2
2021/11/04 00:04:47;;;;;;;16.87;10.40;;;;;;;;;;10246537;28;20566;-64
2021/11/04 00:09:44;;;;;;;24.00;8.73;;;;;;;;;;10242557;28;20030;-66
2021/11/04 00:14:42;;;;;;;24.70;11.35;;;;;;;;;;10255531;28;20708;-65
2021/11/04 00:19:40;;;;;;;25.48;10.38;;;;;;;;;;10243839;28;20029;-65
2021/11/04 00:24:37;;;;;;;15.23;6.90;;;;;;;;;;10246184;28;20045;-65
2021/11/04 00:29:35;;;;;;;25.27;8.77;;;;;;;;;;10246901;28;20034;-65
2021/11/04 00:34:32;;;;;;;21.23;8.13;;;;;;;;;;10247262;28;20091;-62
2021/11/04 00:39:30;;;;;;;12.07;5.50;;;;;;;;;;10245271;28;20519;-65
2021/11/04 00:44:27;;;;;;;22.90;10.37;;;;;;;;;;10255916;28;20050;-65
2021/11/04 00:49:25;;;;;;;24.67;10.50;;;;;;;;;;10244756;28;20557;-64
2021/11/04 00:54:22;;;;;;;21.97;11.40;;;;;;;;;;10252199;28;20363;-65
2021/11/04 00:59:20;;;;;;;11.00;5.73;;;;;;;;;;10255877;28;20025;-65
2021/11/04 01:04:17;;;;;;;20.23;9.87;;;;;;;;;;10275587;28;20531;-63
2021/11/04 01:09:15;;;;;;;12.83;6.47;;;;;;;;;;10255854;28;20662;-63
2021/11/04 01:14:12;;;;;;;6.20;3.57;;;;;;;;;;10262399;28;20038;-63
2021/11/04 01:19:12;;;;;;;32.27;8.60;;;;;;;;;;10250995;28;20063;-63
2021/11/04 01:24:09;;;;;;;20.88;9.38;;;;;;;;;;10265687;28;20448;-63
2021/11/04 01:29:07;;;;;;;22.40;8.67;;;;;;;;;;10254362;28;20408;-64
2021/11/04 01:34:06;;;;;;;26.30;11.07;;;;;;;;;;10254028;28;20041;-64
2021/11/04 01:39:04;;;;;;;23.52;9.80;;;;;;;;;;10255409;28;20341;-63
2021/11/04 01:44:01;;;;;;;18.50;6.35;;;;;;;;;;10256270;28;20115;-62
2021/11/04 01:48:59;;;;;;;26.27;11.83;;;;;;;;;;10252340;28;20184;-64
2021/11/04 01:53:57;;;;;;;25.43;10.97;;;;;;;;;;10249308;28;20345;-62
2021/11/04 01:58:54;;;;;;;21.47;9.67;;;;;;;;;;10251555;28;20064;-62
2021/11/04 02:04:01;;;;;;;18.80;6.13;;;;;;;;;;10253928;28;20030;-63
2021/11/04 02:09:02;;;;;;;16.20;7.18;;;;;;;;;;10256290;28;20572;-62
2021/11/04 02:14:01;;;;;;;23.75;10.75;;;;;;;;;;10263157;28;20041;-62
2021/11/04 02:19:07;;;;;;;26.60;12.13;;;;;;;;;;10244591;28;20037;-61
2021/11/04 02:24:16;;;;;;;25.52;10.65;;;;;;;;;;10247546;28;20103;-61
2021/11/04 02:29:14;;;;;;;17.77;7.88;;;;;;;;;;10251136;28;20048;-62
2021/11/04 02:34:13;;;;;;;7.00;2.78;;;;;;;;;;10249966;28;20049;-62
2021/11/04 02:39:11;;;;;;;19.60;9.70;;;;;;;;;;10253734;28;20539;-63
2021/11/04 02:44:11;;;;;;;15.98;6.45;;;;;;;;;;10251412;28;20500;-61
2021/11/04 02:49:08;;;;;;;16.58;8.30;;;;;;;;;;10249523;28;20042;-61
2021/11/04 02:54:08;;;;;;;14.07;6.63;;;;;;;;;;10249831;28;20042;-61
2021/11/04 02:59:06;;;;;;;11.85;6.57;;;;;;;;;;10242284;28;20600;-62
2021/11/04 03:04:03;;;;;;;8.90;5.73;;;;;;;;;;10253833;28;20401;-62
2021/11/04 03:09:01;;;;;;;12.47;5.53;;;;;;;;;;10259345;28;20030;-64
2021/11/04 03:13:59;;;;;;;9.40;3.67;;;;;;;;;;10248079;28;20280;-63
2021/11/04 03:18:57;;;;;;;7.13;3.33;;;;;;;;;;10252114;28;20417;-63
2021/11/04 03:23:55;;;;;;;6.18;2.90;;;;;;;;;;10249786;28;20535;-64
2021/11/04 03:28:53;;;;;;;10.27;4.80;;;;;;;;;;10255597;28;20417;-64
2021/11/04 03:33:51;;;;;;;11.02;5.53;;;;;;;;;;10247695;28;20037;-63
2021/11/04 03:38:49;;;;;;;7.72;3.90;;;;;;;;;;10244778;28;20034;-62
2021/11/04 03:43:47;;;;;;;8.33;4.47;;;;;;;;;;10245162;28;20500;-63
2021/11/04 03:48:45;;;;;;;6.85;3.05;;;;;;;;;;10264594;28;20370;-64
2021/11/04 03:53:44;;;;;;;9.82;5.55;;;;;;;;;;10228217;28;20022;-62
2021/11/04 03:58:42;;;;;;;8.85;3.92;;;;;;;;;;10253286;28;20049;-62
2021/11/04 04:03:42;;;;;;;5.83;3.77;;;;;;;;;;10241920;28;20049;-61
2021/11/04 04:08:42;;;;;;;6.88;3.00;;;;;;;;;;10257192;28;20535;-62
2021/11/04 04:13:39;;;;;;;5.72;2.92;;;;;;;;;;10255663;28;20030;-62
2021/11/04 04:18:37;;;;;;;2.70;2.47;;;;;;;;;;10244495;28;20030;-61
2021/11/04 04:23:34;;;;;;;4.37;2.60;;;;;;;;;;10233841;28;20096;-62
2021/11/04 04:28:32;;;;;;;6.00;3.27;;;;;;;;;;10237241;28;20499;-61
2021/11/04 04:33:29;;;;;;;5.43;3.27;;;;;;;;;;10233480;28;20618;-61
2021/11/04 04:38:27;;;;;;;5.67;2.73;;;;;;;;;;10238809;28;20056;-61
2021/11/04 04:43:24;;;;;;;3.90;2.77;;;;;;;;;;10236693;28;20081;-61
2021/11/04 04:48:21;;;;;;;5.07;2.60;;;;;;;;;;10240866;28;20034;-62
2021/11/04 04:53:19;;;;;;;4.47;2.03;;;;;;;;;;10238444;28;20030;-62
2021/11/04 04:58:17;;;;;;;3.57;1.93;;;;;;;;;;10233677;28;20034;-60
2021/11/04 05:03:14;;;;;;;7.80;2.87;;;;;;;;;;10233949;28;20038;-61
2021/11/04 05:08:12;;;;;;;3.97;1.83;;;;;;;;;;10239526;28;20061;-61
2021/11/04 05:13:09;;;;;;;4.53;3.05;;;;;;;;;;10236594;28;20038;-62
2021/11/04 05:18:08;;;;;;;2.67;2.23;;;;;;;;;;10235767;28;20038;-60
2021/11/04 05:23:06;;;;;;;6.45;3.10;;;;;;;;;;10239548;28;20042;-60
2021/11/04 05:28:03;;;;;;;7.17;5.20;;;;;;;;;;10234963;28;20030;-62
2021/11/04 05:33:01;;;;;;;4.60;2.40;;;;;;;;;;10235760;28;20484;-61
2021/11/04 05:37:58;;;;;;;5.63;3.13;;;;;;;;;;10235857;28;20059;-62
2021/11/04 05:42:56;;;;;;;9.70;4.70;;;;;;;;;;10244961;28;20054;-60
2021/11/04 05:47:53;;;;;;;6.47;3.50;;;;;;;;;;10234731;28;20084;-60
2021/11/04 05:52:52;;;;;;;8.77;3.55;;;;;;;;;;10262816;28;20042;-61
2021/11/04 05:57:49;;;;;;;8.50;4.05;;;;;;;;;;10244064;28;20026;-62
2021/11/04 06:02:47;;;;;;;6.00;3.77;;;;;;;;;;10240176;28;20041;-62
2021/11/04 06:07:44;;;;;;;6.70;2.90;;;;;;;;;;10229086;28;20284;-62
2021/11/04 06:12:42;;;;;;;9.60;4.20;;;;;;;;;;10252989;28;20048;-63
2021/11/04 06:17:39;;;;;;;7.80;3.63;;;;;;;;;;10238766;28;20113;-62
2021/11/04 06:22:37;;;;;;;5.40;3.70;;;;;;;;;;10241116;28;20033;-60
2021/11/04 06:27:35;;;;;;;8.63;4.57;;;;;;;;;;10250711;28;20030;-60
2021/11/04 06:32:34;;;;;;;6.97;3.60;;;;;;;;;;10243118;28;20038;-59
2021/11/04 06:37:31;;;;;;;6.72;3.25;;;;;;;;;;10249028;28;20523;-61
2021/11/04 06:42:29;;;;;;;7.70;3.60;;;;;;;;;;10246487;28;20391;-61
2021/11/04 06:47:50;;;;;;;5.87;3.80;;;;;;;;;;10252475;28;20038;-62
2021/11/04 06:52:50;;;;;;;4.68;2.60;;;;;;;;;;10248391;28;20120;-61
2021/11/04 06:57:50;;;;;;;6.60;2.95;;;;;;;;;;10242286;28;20096;-60
2021/11/04 07:02:51;;;;;;;6.55;3.05;;;;;;;;;;10251729;28;20037;-63
2021/11/04 07:07:52;;;;;;;5.38;2.33;;;;;;;;;;10253760;28;20037;-62
2021/11/04 07:12:50;;;;;;;5.55;2.72;;;;;;;;;;10242123;28;20045;-62
2021/11/04 07:17:48;;;;;;;;;;;;;;;;;;10253690;28;20447;-63
2021/11/04 07:22:48;;;;;;;4.83;3.20;;;;;;;;;;10258211;28;19952;-61
2021/11/04 07:27:48;;;;;;;4.15;2.47;;;;;;;;;;10256057;28;20037;-62
2021/11/04 07:32:50;;;;;;;5.13;2.47;;;;;;;;;;10254216;28;20034;-62
2021/11/04 07:37:48;;;;;;;3.53;2.25;;;;;;;;;;10250140;28;20054;-61
2021/11/04 07:42:46;;;;;;;3.60;2.35;;;;;;;;;;10265244;28;20038;-62
2021/11/04 07:47:47;;;;;;;5.77;2.43;;;;;;;;;;10256300;28;20370;-62
2021/11/04 07:52:46;;;;;;;2.33;1.98;;;;;;;;;;10250054;28;20048;-63
2021/11/04 07:57:43;;;;;;;5.78;2.35;;;;;;;;;;10245977;28;20038;-63
2021/11/04 08:02:41;;;;;;;3.60;2.20;;;;;;;;;;10245017;28;20068;-63
2021/11/04 08:07:39;;;;;;;4.37;2.40;;;;;;;;;;10252380;28;20813;-63
2021/11/04 08:12:36;;;;;;;3.80;2.38;;;;;;;;;;10241033;28;20038;-64
2021/11/04 08:17:34;;;;;;;5.43;2.67;;;;;;;;;;10261085;28;20045;-64
2021/11/04 08:22:32;;;;;;;6.17;3.40;;;;;;;;;;10259071;28;20396;-63
2021/11/04 08:27:31;;;;;;;6.03;3.15;;;;;;;;;;10265443;28;20339;-64
2021/11/04 08:32:28;;;;;;;9.30;3.30;;;;;;;;;;10249176;28;20097;-64
2021/11/04 08:37:26;;;;;;;3.10;1.93;;;;;;;;;;10260891;28;20084;-65
2021/11/04 08:42:23;;;;;;;2.60;2.40;;;;;;;;;;10267259;28;20562;-65
2021/11/04 08:47:21;;;;;;;7.43;3.90;;;;;;;;;;10257264;28;20030;-65
2021/11/04 08:52:18;;;;;;;17.52;7.57;;;;;;;;;;10260029;28;20045;-64
2021/11/04 08:57:16;;;;;;;8.33;4.17;;;;;;;;;;10262623;28;20503;-62
2021/11/04 09:02:14;;;;;;;6.87;4.03;;;;;;;;;;10263173;28;20049;-63
2021/11/04 09:07:13;;;;;;;7.43;3.60;;;;;;;;;;10252352;28;20520;-63
2021/11/04 09:12:11;;;;;;;24.77;10.85;;;;;;;;;;10251564;28;20077;-65
2021/11/04 09:17:09;;;;;;;20.80;7.35;;;;;;;;;;10257774;28;20619;-63
2021/11/04 09:22:07;;;;;;;13.80;5.72;;;;;;;;;;10256935;28;20046;-64
2021/11/04 09:27:04;;;;;;;13.03;5.37;;;;;;;;;;10246180;28;20113;-65
2021/11/04 09:32:05;;;;;;;9.40;5.00;;;;;;;;;;10236840;28;20038;-64
2021/11/04 09:37:04;;;;;;;11.35;4.80;;;;;;;;;;10243609;28;20392;-65
2021/11/04 09:42:02;;;;;;;11.85;4.57;;;;;;;;;;10248176;28;20093;-64
2021/11/04 09:47:00;;;;;;;11.10;4.72;;;;;;;;;;10244505;28;20061;-63
2021/11/04 09:51:58;;;;;;;13.50;4.93;;;;;;;;;;10252656;28;20040;-65
2021/11/04 09:56:55;;;;;;;6.68;3.72;;;;;;;;;;10262858;28;20033;-64
2021/11/04 10:01:53;;;;;;;10.13;3.87;;;;;;;;;;10261474;28;20056;-64
2021/11/04 10:06:53;;;;;;;8.03;4.77;;;;;;;;;;10257143;28;20037;-64
2021/11/04 10:11:53;;;;;;;10.02;3.72;;;;;;;;;;10257429;28;20169;-64
2021/11/04 10:16:51;;;;;;;3.17;2.30;;;;;;;;;;10224869;28;20072;-64
2021/11/04 10:21:50;;;;;;;8.50;3.33;;;;;;;;;;10252220;28;20081;-63
2021/11/04 10:26:54;;;;;;;5.55;2.63;;;;;;;;;;10258467;28;20049;-63
2021/11/04 10:31:55;;;;;;;6.63;2.85;;;;;;;;;;10248205;28;20038;-63
2021/11/04 10:36:54;;;;;;;5.97;2.85;;;;;;;;;;10252270;28;20030;-65
2021/11/04 10:41:53;;;;;;;3.65;1.92;;;;;;;;;;10261645;28;20074;-65
2021/11/04 10:46:52;;;;;;;7.22;3.17;;;;;;;;;;10268390;28;20088;-66
2021/11/04 10:52:01;;;;;;;4.10;2.67;;;;;;;;;;10256754;28;20133;-65
2021/11/04 10:56:58;;;;;;;1.45;1.13;;;;;;;;;;10237136;28;20125;-62
2021/11/04 11:01:55;;;;;;;2.83;1.87;;;;;;;;;;10245873;28;20124;-63
2021/11/04 11:06:55;;;;;;;2.73;2.03;;;;;;;;;;10265094;28;20514;-63
2021/11/04 11:11:58;;;;;;;3.90;2.25;;;;;;;;;;10263583;28;20050;-64
2021/11/04 11:16:56;;;;;;;4.75;2.10;;;;;;;;;;10265226;28;20511;-63
2021/11/04 11:21:54;;;;;;;4.45;2.20;;;;;;;;;;10264231;28;20088;-63
2021/11/04 11:26:52;;;;;;;3.22;2.28;;;;;;;;;;10258428;28;20484;-64
2021/11/04 11:31:51;;;;;;;1.45;0.85;;;;;;;;;;10249125;28;20066;-65
2021/11/04 11:37:10;;;;;;;3.00;1.35;;;;;;;;;;10251635;28;20048;-65
2021/11/04 11:42:09;;;;;;;1.55;1.10;;;;;;;;;;10236731;28;20133;-64
2021/11/04 11:47:25;;;;;;;1.42;1.08;;;;;;;;;;10240931;28;20128;-66
2021/11/04 11:52:42;;;;;;;2.05;1.25;;;;;;;;;;10231470;28;20367;-66
2021/11/04 11:57:40;;;;;;;0.65;0.63;;;;;;;;;;10227294;28;20033;-65
2021/11/04 12:02:54;;;;;;;2.35;0.98;;;;;;;;;;10213517;28;20563;-64
2021/11/04 12:07:53;;;;;;;1.95;0.88;;;;;;;;;;10253030;28;20041;-64
2021/11/04 12:12:50;;;;;;;1.55;1.25;;;;;;;;;;10248500;28;20049;-64
2021/11/04 12:18:06;;;;;;;1.67;1.13;;;;;;;;;;10248777;28;20049;-66
2021/11/04 12:23:03;;;;;;;1.85;1.17;;;;;;;;;;10257462;28;20417;-65
2021/11/04 12:28:01;;;;;;;1.00;1.00;;;;;;;;;;10258504;28;20038;-66
2021/11/04 12:32:58;;;;;;;1.17;1.10;;;;;;;;;;10262756;28;20080;-66
2021/11/04 12:37:56;;;;;;;1.27;0.97;;;;;;;;;;10253864;28;20406;-67
2021/11/04 12:42:53;;;;;;;3.50;1.53;;;;;;;;;;10249516;28;20030;-65
2021/11/04 12:47:59;;;;;;;2.77;1.27;;;;;;;;;;10253734;28;20523;-64
2021/11/04 12:53:12;;;;;;;2.55;1.52;;;;;;;;;;10247591;28;20444;-64
2021/11/04 12:58:10;;;;;;;1.88;0.90;;;;;;;;;;10218833;28;20050;-68
2021/11/04 13:03:08;;;;;;;2.83;1.27;;;;;;;;;;10235862;28;20038;-67
2021/11/04 13:08:08;;;;;;;1.13;0.83;;;;;;;;;;10236486;28;20461;-68
2021/11/04 13:13:08;;;;;;;1.30;0.63;;;;;;;;;;10237939;28;20468;-66
2021/11/04 13:18:06;;;;;;;1.08;0.60;;;;;;;;;;10235536;28;20493;-67
2021/11/04 13:23:04;;;;;;;;;;;;;;;;;;10232632;28;20053;-65
2021/11/04 13:28:03;;;;;;;0.52;0.52;;;;;;;;;;10238275;28;19925;-65
2021/11/04 13:33:01;;;;;;;0.47;0.47;;;;;;;;;;10235671;28;20542;-65
2021/11/04 13:38:09;;;;;;;15.60;4.53;;;;;;;;;;10226889;28;20459;-64
2021/11/04 13:43:06;;;;;;;33.42;9.73;;;;;;;;;;10235746;28;20038;-64
2021/11/04 13:48:04;;;;;;;13.93;4.83;;;;;;;;;;10232174;28;20033;-64
2021/11/04 13:53:11;;;;;;;5.33;2.43;;;;;;;;;;10250576;28;22202;-64
2021/11/04 13:58:08;;;;;;;2.90;2.00;;;;;;;;;;10238647;28;20046;-67
2021/11/04 14:03:10;;;;;;;4.03;2.20;;;;;;;;;;10269894;28;20042;-66
2021/11/04 14:08:08;;;;;;;5.70;2.55;;;;;;;;;;10269573;28;20538;-67
2021/11/04 14:13:05;;;;;;;4.90;2.60;;;;;;;;;;10276303;28;20411;-66
2021/11/04 14:18:03;;;;;;;11.53;3.20;;;;;;;;;;10266433;28;20277;-69
2021/11/04 14:23:01;;;;;;;4.88;2.67;;;;;;;;;;10267776;28;20045;-69
2021/11/04 14:28:02;;;;;;;9.45;3.38;;;;;;;;;;10281543;28;20026;-68
2021/11/04 14:32:59;;;;;;;10.05;3.17;;;;;;;;;;10265857;28;20042;-68
2021/11/04 14:37:57;;;;;;;5.37;2.50;;;;;;;;;;10266196;28;20042;-67
2021/11/04 14:42:54;;;;;;;4.43;2.80;;;;;;;;;;10268017;28;20034;-68
2021/11/04 14:47:57;;;;;;;7.07;3.67;;;;;;;;;;10261883;28;20277;-69
2021/11/04 14:52:55;;;;;;;5.68;2.58;;;;;;;;;;10265585;28;20046;-69
2021/11/04 14:57:53;;;;;;;6.43;2.60;;;;;;;;;;10241668;28;20046;-68
2021/11/04 15:02:50;;;;;;;4.40;2.10;;;;;;;;;;10305525;28;20036;-68
2021/11/04 15:07:48;;;;;;;2.73;2.30;;;;;;;;;;10307051;28;20083;-66
2021/11/04 15:12:45;;;;;;;4.03;2.67;;;;;;;;;;10304963;28;20088;-67
2021/11/04 15:17:43;;;;;;;3.70;2.10;;;;;;;;;;10305772;28;20478;-63
2021/11/04 15:22:40;;;;;;;1.63;0.83;;;;;;;;;;10305722;28;20476;-68
2021/11/04 15:27:38;;;;;;;3.30;2.20;;;;;;;;;;10305279;28;20124;-67
2021/11/04 15:32:35;;;;;;;3.57;2.07;;;;;;;;;;10306035;28;20058;-68
2021/11/04 15:37:33;;;;;;;4.73;2.57;;;;;;;;;;10303690;28;20072;-68
2021/11/04 15:42:30;;;;;;;2.90;2.17;;;;;;;;;;10305234;28;20041;-67
2021/11/04 15:47:28;;;;;;;2.50;1.93;;;;;;;;;;10300243;28;20923;-66
2021/11/04 15:52:25;;;;;;;7.73;2.67;;;;;;;;;;10304581;28;20041;-67
2021/11/04 15:57:23;;;;;;;3.50;1.90;;;;;;;;;;10303044;28;20090;-64
2021/11/04 16:02:20;;;;;;;6.60;1.87;;;;;;;;;;10305307;28;20038;-67
2021/11/04 16:07:18;;;;;;;2.93;2.20;;;;;;;;;;10304382;28;20033;-66
2021/11/04 16:12:15;;;;;;;2.93;1.90;;;;;;;;;;10262104;28;20524;-65
2021/11/04 16:17:13;;;;;;;5.47;2.27;;;;;;;;;;10253091;28;20411;-66
2021/11/04 16:22:10;;;;;;;4.43;3.10;;;;;;;;;;10248065;28;20044;-66
2021/11/04 16:27:08;;;;;;;3.33;1.93;;;;;;;;;;10248187;28;20358;-64
2021/11/04 16:32:05;;;;;;;5.27;2.13;;;;;;;;;;10248664;28;20030;-65
2021/11/04 16:37:03;;;;;;;6.90;2.10;;;;;;;;;;10245200;28;20037;-66
2021/11/04 16:42:05;;;;;;;8.37;3.23;;;;;;;;;;10249848;28;20129;-66
2021/11/04 16:47:03;;;;;;;2.78;1.65;;;;;;;;;;10245147;28;20034;-66
2021/11/04 16:52:00;;;;;;;6.30;2.20;;;;;;;;;;10235902;28;20036;-66
2021/11/04 16:56:58;;;;;;;5.20;2.10;;;;;;;;;;10251463;28;20033;-66
2021/11/04 17:01:55;;;;;;;5.83;2.60;;;;;;;;;;10243591;28;20120;-66
2021/11/04 17:06:53;;;;;;;5.53;2.07;;;;;;;;;;10236391;28;20548;-68
2021/11/04 17:11:50;;;;;;;5.13;2.63;;;;;;;;;;10254196;28;20675;-67
2021/11/04 17:16:48;;;;;;;4.97;2.60;;;;;;;;;;10242116;28;20138;-68
2021/11/04 17:21:45;;;;;;;5.43;2.47;;;;;;;;;;10221914;28;20038;-66
2021/11/04 17:26:42;;;;;;;4.10;2.70;;;;;;;;;;10222466;28;20515;-66
2021/11/04 17:31:40;;;;;;;6.17;3.17;;;;;;;;;;10223218;28;20512;-68
2021/11/04 17:36:38;;;;;;;5.57;2.63;;;;;;;;;;10249207;28;20079;-65
2021/11/04 17:41:36;;;;;;;1.55;0.98;;;;;;;;;;10261800;28;20030;-64
2021/11/04 17:46:34;;;;;;;5.23;1.80;;;;;;;;;;10258051;28;20042;-65
2021/11/04 17:51:33;;;;;;;4.55;1.60;;;;;;;;;;10255257;28;20033;-66
2021/11/04 17:56:30;;;;;;;2.60;1.63;;;;;;;;;;10257517;28;20042;-65
2021/11/04 18:01:29;;;;;;;0.97;0.97;;;;;;;;;;10256981;28;20033;-65
2021/11/04 18:06:26;;;;;;;;;;;;;;;;;;10227377;28;20050;-65
2021/11/04 18:11:24;;;;;;;4.00;2.40;;;;;;;;;;10256132;28;20367;-66
2021/11/04 18:16:22;;;;;;;4.22;3.15;;;;;;;;;;10245622;28;20488;-66
2021/11/04 18:21:19;;;;;;;8.90;5.00;;;;;;;;;;10230564;28;20489;-65
2021/11/04 18:26:17;;;;;;;8.63;4.63;;;;;;;;;;10245890;28;20042;-66
2021/11/04 18:31:14;;;;;;;3.33;1.97;;;;;;;;;;10244103;28;20050;-66
2021/11/04 18:36:12;;;;;;;1.37;0.93;;;;;;;;;;10248399;28;20986;-67
2021/11/04 18:41:09;;;;;;;5.20;2.00;;;;;;;;;;10241175;28;20045;-64
2021/11/04 18:46:10;;;;;;;3.27;1.97;;;;;;;;;;10250387;28;20045;-66
2021/11/04 18:51:07;;;;;;;0.80;0.77;;;;;;;;;;10241709;28;20046;-65
2021/11/04 18:56:05;;;;;;;2.05;1.25;;;;;;;;;;10242417;28;20038;-65
2021/11/04 19:01:03;;;;;;;3.03;1.43;;;;;;;;;;10237954;28;20038;-64
2021/11/04 19:06:01;;;;;;;4.57;2.25;;;;;;;;;;10241509;28;20412;-66
2021/11/04 19:10:58;;;;;;;2.77;1.83;;;;;;;;;;10249181;28;20060;-67
2021/11/04 19:15:56;;;;;;;5.17;2.77;;;;;;;;;;10253705;28;20085;-66
2021/11/04 19:20:53;;;;;;;13.27;5.07;;;;;;;;;;10244909;28;20038;-66
2021/11/04 19:25:51;;;;;;;16.13;6.73;;;;;;;;;;10248327;28;20726;-65
2021/11/04 19:30:49;;;;;;;7.68;3.88;;;;;;;;;;10247877;28;20049;-66
2021/11/04 19:35:46;;;;;;;7.90;4.57;;;;;;;;;;10255635;28;20098;-66
2021/11/04 19:40:45;;;;;;;7.30;4.70;;;;;;;;;;10243748;28;20054;-66
2021/11/04 19:45:42;;;;;;;8.63;3.37;;;;;;;;;;10244920;28;20046;-66
2021/11/04 19:50:40;;;;;;;5.83;3.10;;;;;;;;;;10236149;28;20100;-66
2021/11/04 19:55:37;;;;;;;7.63;3.20;;;;;;;;;;10235651;28;20034;-66
2021/11/04 20:00:35;;;;;;;6.50;3.53;;;;;;;;;;10243538;28;20074;-66
2021/11/04 20:05:32;;;;;;;5.80;3.03;;;;;;;;;;10247624;28;20042;-66
2021/11/04 20:10:30;;;;;;;5.87;3.40;;;;;;;;;;10247290;28;20316;-66
2021/11/04 20:15:28;;;;;;;6.53;3.70;;;;;;;;;;10235800;28;21450;-66
2021/11/04 20:20:25;;;;;;;6.30;3.93;;;;;;;;;;10234387;28;20049;-66
2021/11/04 20:25:23;;;;;;;11.03;4.13;;;;;;;;;;10237423;28;20338;-66
2021/11/04 20:30:21;;;;;;;15.90;4.60;;;;;;;;;;10235037;28;20042;-66
2021/11/04 20:35:18;;;;;;;14.68;4.55;;;;;;;;;;10237732;28;20072;-66
2021/11/04 20:40:16;;;;;;;10.43;3.60;;;;;;;;;;10234354;28;20551;-66
2021/11/04 20:45:13;;;;;;;20.70;10.57;;;;;;;;;;10236273;28;20049;-68
2021/11/04 20:50:12;;;;;;;16.03;6.83;;;;;;;;;;10240135;28;20042;-67
2021/11/04 20:55:10;;;;;;;6.82;5.00;;;;;;;;;;10240619;28;20125;-67
2021/11/04 21:00:08;;;;;;;7.38;3.65;;;;;;;;;;10237270;28;20052;-66
2021/11/04 21:05:06;;;;;;;4.45;2.75;;;;;;;;;;10242324;28;20102;-67
2021/11/04 21:10:04;;;;;;;6.97;2.70;;;;;;;;;;10240572;28;20044;-67
2021/11/04 21:15:03;;;;;;;8.23;3.38;;;;;;;;;;10250845;28;20393;-67
2021/11/04 21:20:00;;;;;;;6.35;3.83;;;;;;;;;;10243746;28;20038;-67
2021/11/04 21:24:58;;;;;;;8.67;4.20;;;;;;;;;;10253983;28;20045;-66
2021/11/04 21:29:56;;;;;;;6.97;4.47;;;;;;;;;;10246969;28;20144;-68
2021/11/04 21:34:53;;;;;;;5.00;2.67;;;;;;;;;;10229962;28;20040;-67
2021/11/04 21:39:51;;;;;;;6.70;2.30;;;;;;;;;;10240836;28;20045;-66
2021/11/04 21:44:48;;;;;;;4.17;2.50;;;;;;;;;;10239587;28;20042;-67
2021/11/04 21:49:46;;;;;;;9.40;4.37;;;;;;;;;;10245284;28;20164;-67
2021/11/04 21:54:44;;;;;;;10.02;3.70;;;;;;;;;;10256299;28;20448;-66
2021/11/04 21:59:41;;;;;;;5.13;1.87;;;;;;;;;;10247046;28;20173;-66
2021/11/04 22:04:39;;;;;;;9.23;4.33;;;;;;;;;;10251636;28;20044;-67
2021/11/04 22:09:37;;;;;;;4.97;3.60;;;;;;;;;;10253523;28;20574;-66
2021/11/04 22:14:35;;;;;;;11.33;3.97;;;;;;;;;;10250112;28;20041;-67
2021/11/04 22:19:32;;;;;;;4.32;2.95;;;;;;;;;;10248590;28;20065;-66
2021/11/04 22:24:29;;;;;;;14.47;5.83;;;;;;;;;;10249741;28;20125;-66
2021/11/04 22:29:27;;;;;;;12.50;6.20;;;;;;;;;;10256012;28;20045;-66
2021/11/04 22:34:25;;;;;;;12.95;5.65;;;;;;;;;;10251486;28;20034;-67
2021/11/04 22:39:26;;;;;;;9.13;3.60;;;;;;;;;;10249311;28;20022;-67
2021/11/04 22:44:24;;;;;;;4.90;3.15;;;;;;;;;;10258686;28;20061;-67
2021/11/04 22:49:22;;;;;;;3.92;2.72;;;;;;;;;;10253967;28;20125;-66
2021/11/04 22:54:19;;;;;;;7.10;3.23;;;;;;;;;;10248626;28;20037;-66
2021/11/04 22:59:16;;;;;;;5.73;1.83;;;;;;;;;;10249307;28;20025;-66
2021/11/04 23:04:14;;;;;;;10.77;5.27;;;;;;;;;;10260851;28;20057;-66
2021/11/04 23:09:11;;;;;;;7.80;5.27;;;;;;;;;;10257632;28;20029;-66
2021/11/04 23:14:09;;;;;;;10.37;6.07;;;;;;;;;;10241604;28;20034;-67
2021/11/04 23:19:06;;;;;;;9.10;5.43;;;;;;;;;;10248329;28;20837;-67
2021/11/04 23:24:04;;;;;;;5.10;2.60;;;;;;;;;;10236685;28;20655;-68
2021/11/04 23:29:02;;;;;;;9.23;3.27;;;;;;;;;;10250603;28;20037;-67
2021/11/04 23:34:00;;;;;;;11.68;5.10;;;;;;;;;;10253482;28;20458;-66
2021/11/04 23:38:59;;;;;;;11.63;7.38;;;;;;;;;;10250312;28;20037;-66
2021/11/04 23:43:56;;;;;;;9.57;5.53;;;;;;;;;;10254804;28;20084;-67
2021/11/04 23:48:54;;;;;;;7.87;4.73;;;;;;;;;;10248231;28;20513;-67
2021/11/04 23:53:51;;;;;;;15.40;6.77;;;;;;;;;;10248518;28;20034;-66
2021/11/04 23:58:49;;;;;;;14.00;7.00;;;;;;;;;;10250108;28;20038;-66
